Weather observations for the past three days for
San Antonio - Kelly Field
Metric (Imperial)
Date Time (cdt) Wind (kph) Vis. (km) Weather Sky Cond. Temperature (ºC) Relative Humidity Wind Chill (°C) Heat Index (°C) Pressure Precipitation (cm)
Air Dwpt 6 hour altimeter (cm) sea level (mb) 1 hr 3 hr 6 hr
Max. Min.
10 16:55 SE 20 G 31 16.09 Partly Cloudy SCT047 32.4 19.3 46% 34 75.77 1009.4
10 15:56 SE 19 16.09 Fair CLR 32 19.2 47% 34 75.82 1010.0
10 14:56 E 17 16.09 A Few Clouds FEW180 31.8 19.7 49% 34 75.84 1010.3
10 13:55 E 19 G 31 16.09 Partly Cloudy FEW160 SCT190 SCT210 31 19.6 51% 33 75.87 1010.7
10 12:55 E 19 16.09 A Few Clouds FEW029 FEW160 FEW180 29.8 19.5 30 20.1 54% 31 75.95 1011.7
10 11:55 SE 20 14.48 A Few Clouds FEW200 28.5 20.5 62% 30 75.95 1011.7
10 10:55 E 13 14.48 Fair CLR 27.9 20.7 65% 30 75.92 1011.4
10 09:55 SE 7 14.48 Fair CLR 26 20.8 73% 27 75.87 1010.7
10 08:55 S 7 14.48 Fair CLR 24.1 20.2 79% 25 75.87 1010.7
10 07:55 Calm 14.48 Fair CLR 22 18.8 82% 75.82 1010.1
10 06:55 Calm 16.09 Fair CLR 20.5 17.7 24.9 20.3 84% 75.77 1009.4
10 05:55 SE 7 16.09 Fair CLR 21.9 18.1 79% 75.79 1009.7
10 04:55 SE 9 16.09 Fair CLR 21.2 17.8 81% 75.77 1009.4
10 03:55 Calm 16.09 Fair CLR 22.4 17.5 74% 75.74 1009.0
10 02:55 SE 9 16.09 Fair CLR 23.2 17.6 71% 75.74 1009.0
10 01:55 S 9 16.09 Fair CLR 24 18.4 71% 25 75.74 1009.0
10 00:55 SE 11 16.09 Fair CLR 25 18.7 32.2 24.7 68% 26 75.74 1009.0
09 23:55 S 13 16.09 Fair CLR 25.5 18.9 67% 27 75.69 1008.3
09 22:55 SE 20 16.09 Fair CLR 28.4 18.2 54% 29 75.69 1008.3
09 21:55 SE 13 16.09 Fair CLR 29 18.4 53% 30 75.64 1007.7
09 20:55 SE 15 16.09 Fair CLR 30 18.1 49% 31 75.59 1007.0
09 19:56 SE 15 16.09 Fair CLR 30.3 19.3 52% 32 75.54 1006.3
09 18:55 S 11 16.09 A Few Clouds FEW060 32.2 17.6 33.3 29.8 42% 33 75.46 1005.2
09 17:55 SE 7 16.09 A Few Clouds FEW055 32.8 17.8 41% 34 75.49 1005.6
09 16:55 SW 9 16.09 A Few Clouds FEW050 33 18.3 42% 34 75.49 1005.6
09 15:56 S 7 16.09 A Few Clouds FEW045 32.6 18.7 44% 34 75.54 1006.3
09 14:56 Vrbl 6 16.09 Partly Cloudy SCT048 SCT180 31.6 18.9 47% 33 75.62 1007.3
09 13:59 W 9 16.09 Mostly Cloudy SCT045 BKN200 31.3 19.6 50% 33 75.67 1008.0
09 12:55 SW 9 14.48 Partly Cloudy FEW033 SCT160 SCT190 29.7 20.2 29.8 22.5 57% 32 75.72 1008.7
09 11:55 S 15 14.48 A Few Clouds FEW190 28.9 20 59% 31 75.74 1009.1
09 10:55 Calm 14.48 A Few Clouds FEW012 26 22.7 82% 28 75.77 1009.4
09 09:55 S 11 G 26 8.05 Light Rain Fog/Mist BKN006 OVC013 22.6 20.7 89% 75.79 1009.8
09 08:55 S 7 8.05 Thunderstorm Fog/Mist BKN006 OVC017 23.8 22.2 91% 75.79 1009.8
09 07:55 NE 7 3.03 Fog/Mist BKN004 OVC008 23.4 22.2 93% 75.74 1009.2
09 06:55 NE 9 3.62 Fog/Mist OVC005 23.4 21.8 23.8 23.3 91% 75.72 1008.8
09 05:55 NE 7 6.44 Fog/Mist OVC007 23.7 21.7 89% 75.67 1008.1
09 04:55 NE 9 6.44 Fog/Mist OVC007 23.6 21.7 89% 75.64 1007.7
09 03:55 N 6 6.44 Fog/Mist OVC006 23.5 21.7 90% 75.62 1007.5
09 02:55 SE 15 6.44 Fog/Mist OVC005 23.4 21.6 90% 75.64 1007.8
09 01:55 SE 11 8.05 Fog/Mist OVC006 23.4 21.5 89% 75.69 1008.5
09 00:55 SE 11 11.27 Overcast OVC008 23.8 21.5 26.3 23.7 87% 75.69 1008.5
08 23:55 E 11 12.87 Overcast OVC009 23.8 21.3 86% 75.74 1009.2
08 22:55 E 11 16.09 A Few Clouds FEW013 23.8 20.7 83% 75.67 1008.2
08 21:55 NE 9 16.09 Mostly Cloudy SCT016 BKN028 24.5 20.6 79% 25 75.64 1007.9
08 20:55 E 13 16.09 Partly Cloudy SCT030 24.5 20.4 78% 25 75.57 1006.9
08 19:55 E 15 14.48 Mostly Cloudy BKN021 BKN035 25.6 20.4 73% 27 75.54 1006.5
08 18:55 NE 9 12.87 A Few Clouds FEW024 26.2 19.8 26.4 21.8 68% 27 75.54 1006.5
08 17:55 E 7 12.87 Partly Cloudy SCT026 25.9 19.3 67% 27 75.54 1006.5
08 16:55 E 9 14.48 Mostly Cloudy SCT025 BKN200 25.9 19 66% 27 75.57 1006.9
08 15:55 E 9 12.87 Overcast OVC020 24.5 18.6 70% 25 75.64 1007.9
08 14:55 E 13 11.27 Overcast OVC019 24.6 18.3 68% 26 75.67 1008.2
08 13:55 SE 13 16.09 Overcast OVC014 23.5 17.2 68% 75.72 1008.9
08 12:55 NE 6 16.09 Overcast OVC012 21.9 16.6 22.1 18.1 72% 75.79 1010.0
08 11:55 Calm 16.09 Overcast OVC013 20.5 16.1 76% 75.84 1010.7
08 10:55 NE 9 16.09 Overcast OVC012 20 15.6 76% 75.87 1011.0
08 09:55 NE 7 16.09 Overcast OVC012 19.3 15.2 77% 75.92 1011.7
08 08:55 Calm 16.09 Overcast OVC011 18.9 14.8 77% 75.92 1011.7
08 07:55 NE 11 16.09 Overcast OVC011 18.6 13.9 74% 75.9 1011.4
08 06:55 NE 13 16.09 Overcast OVC014 18.1 14 19.8 18 77% 75.95 1012.0
08 05:55 NE 9 16.09 Light Rain OVC015 18.4 13.7 74% 75.9 1011.4
08 04:55 E 7 16.09 Overcast OVC015 18.8 12.5 67% 75.92 1011.7
08 03:55 NE 13 16.09 Overcast OVC017 19.2 12.2 64% 75.92 1011.7
08 02:55 NE 9 16.09 Overcast OVC017 19.2 11.7 62% 75.95 1012.0
08 01:55 E 7 14.48 Overcast BKN017 OVC022 19.4 11.4 60% 76 1012.8
08 00:55 E 15 16.09 Overcast OVC020 19.8 11.3 22.3 19.7 58% 75.92 1011.7
07 23:55 NW 6 16.09 Overcast OVC025 19.8 11 57% 76.1 1014.1
07 22:55 NE 17 16.09 A Few Clouds FEW027 FEW210 20.2 10.6 54% 75.95 1012.1
07 21:55 NE 13 16.09 Overcast OVC028 20.4 11 55% 76.05 1013.5
07 20:55 NE 13 16.09 Overcast BKN031 OVC180 20.5 11.4 56% 75.97 1012.4
07 19:55 E 15 G 30 16.09 Mostly Cloudy BKN170 21.1 10.8 52% 75.84 1010.7
07 18:55 NE 17 16.09 Mostly Cloudy SCT150 BKN180 22.2 10.7 22.9 19 48% 75.95 1012.0
07 17:55 NE 17 16.09 Mostly Cloudy FEW026 BKN075 22.5 11.2 49% 76.02 1013.0
Date Time (cdt) Wind (kph) Vis. (km) Weather Sky Cond. Air Dwpt Max. Min. Relative Humidity Wind Chill (°C) Heat Index (°C) altimeter (cm) sea level (mb) 1 hr 3 hr 6 hr
6 hour
Temperature (ºC) Pressure Precipitation (cm)